createdAt,value
2023-02-13T00:00:36.781Z,100.00
2023-02-13T00:03:46.677Z,100.00
2023-02-13T00:07:39.365Z,100.00
2023-02-13T00:10:16.091Z,100.00
2023-02-13T00:13:06.225Z,100.00
2023-02-13T00:15:34.744Z,100.00
2023-02-13T00:18:40.279Z,100.00
2023-02-13T00:21:50.810Z,100.00
2023-02-13T00:24:19.106Z,100.00
2023-02-13T00:27:08.027Z,100.00
2023-02-13T00:30:21.889Z,100.00
2023-02-13T00:32:50.238Z,100.00
2023-02-13T00:35:18.784Z,100.00
2023-02-13T00:37:47.241Z,100.00
2023-02-13T00:40:34.237Z,100.00
2023-02-13T00:43:25.845Z,100.00
2023-02-13T00:45:55.485Z,100.00
2023-02-13T00:49:26.184Z,100.00
2023-02-13T00:52:14.521Z,100.00
2023-02-13T00:54:44.106Z,100.00
2023-02-13T00:58:23.539Z,100.00
2023-02-13T01:01:54.345Z,100.00
2023-02-13T01:05:09.625Z,100.00
2023-02-13T01:07:38.099Z,100.00
2023-02-13T01:10:32.207Z,100.00
2023-02-13T01:14:03.997Z,100.00
2023-02-13T01:16:32.291Z,100.00
2023-02-13T01:20:00.619Z,100.00
2023-02-13T01:23:30.323Z,100.00
2023-02-13T01:27:30.558Z,100.00
2023-02-13T01:31:00.914Z,100.00
2023-02-13T01:33:41.702Z,100.00
2023-02-13T01:36:35.098Z,100.00
2023-02-13T01:40:40.612Z,100.00
2023-02-13T01:44:22.008Z,100.00
2023-02-13T01:48:06.155Z,100.00
2023-02-13T01:52:11.649Z,100.00
2023-02-13T01:55:06.247Z,100.00
2023-02-13T01:58:06.254Z,100.00
2023-02-13T02:01:04.797Z,100.00
2023-02-13T02:05:17.280Z,100.00
2023-02-13T02:08:30.530Z,100.00
2023-02-13T02:12:20.565Z,100.00
2023-02-13T02:16:11.131Z,100.00
2023-02-13T02:20:35.949Z,100.00
2023-02-13T02:25:14.020Z,100.00
2023-02-13T02:29:00.422Z,100.00
2023-02-13T02:32:06.041Z,100.00
2023-02-13T02:35:13.445Z,100.00
2023-02-13T03:03:57.005Z,100.00
2023-02-13T03:06:33.013Z,100.00
2023-02-13T03:09:24.431Z,100.00
2023-02-13T03:12:14.789Z,100.00
2023-02-13T03:14:44.552Z,100.00
2023-02-13T03:17:35.882Z,100.00
2023-02-13T03:20:57.291Z,100.00
2023-02-13T03:23:31.854Z,100.00
2023-02-13T03:26:41.989Z,100.00
2023-02-13T03:30:35.887Z,100.00
2023-02-13T03:33:30.824Z,100.00
2023-02-13T03:37:13.067Z,100.00
2023-02-13T03:41:46.946Z,100.00
2023-02-13T03:45:20.901Z,100.00
2023-02-13T03:48:31.222Z,100.00
2023-02-13T03:51:51.902Z,100.00
2023-02-13T03:54:45.188Z,100.00
2023-02-13T03:57:38.594Z,100.00
2023-02-13T04:00:20.206Z,100.00
2023-02-13T04:03:26.871Z,100.00
2023-02-13T04:06:59.701Z,100.00
2023-02-13T04:14:27.504Z,100.00
2023-02-13T04:17:06.058Z,100.00
2023-02-13T04:19:51.681Z,100.00
2023-02-13T04:23:23.808Z,100.00
2023-02-13T04:26:47.629Z,100.00
2023-02-13T04:29:24.202Z,100.00
2023-02-13T04:32:53.198Z,100.00
2023-02-13T04:35:54.274Z,100.00
2023-02-13T04:38:22.620Z,100.00
2023-02-13T04:40:51.005Z,100.00
2023-02-13T04:43:30.114Z,100.00
2023-02-13T04:45:59.419Z,100.00
2023-02-13T04:48:28.402Z,100.00
2023-02-13T04:50:58.504Z,100.00
2023-02-13T04:54:07.954Z,100.00
2023-02-13T04:57:14.313Z,100.00
2023-02-13T04:59:42.654Z,100.00
2023-02-13T05:02:10.902Z,100.00
2023-02-13T05:05:00.250Z,100.00
2023-02-13T05:07:29.592Z,100.00
2023-02-13T05:10:18.811Z,100.00
2023-02-13T05:13:31.064Z,100.00
2023-02-13T05:16:11.948Z,100.00
2023-02-13T05:18:56.925Z,100.00
2023-02-13T05:21:45.378Z,100.00
2023-02-13T05:24:15.525Z,100.00
2023-02-13T05:26:44.905Z,100.00
2023-02-13T05:29:20.704Z,100.00
2023-02-13T05:31:54.168Z,100.00
2023-02-13T05:34:47.106Z,100.00
2023-02-13T05:37:55.042Z,100.00
2023-02-13T05:40:31.265Z,100.00
2023-02-13T05:43:28.363Z,100.00
2023-02-13T05:46:08.044Z,100.00
2023-02-13T05:48:38.249Z,100.00
2023-02-13T05:51:06.706Z,100.00
2023-02-13T05:53:35.648Z,100.00
2023-02-13T05:56:05.917Z,100.00
2023-02-13T05:58:35.030Z,100.00
2023-02-13T06:01:04.579Z,100.00
2023-02-13T06:03:49.523Z,100.00
2023-02-13T06:06:39.749Z,100.00
2023-02-13T06:10:28.698Z,100.00
2023-02-13T06:13:43.989Z,100.00
2023-02-13T06:16:52.664Z,100.00
2023-02-13T06:19:20.939Z,100.00
2023-02-13T06:21:49.173Z,100.00
2023-02-13T06:24:17.518Z,100.00
2023-02-13T06:26:51.501Z,100.00
2023-02-13T06:29:21.288Z,100.00
2023-02-13T06:33:11.501Z,100.00
2023-02-13T06:36:43.037Z,100.00
2023-02-13T06:39:11.981Z,100.00
2023-02-13T06:42:22.622Z,100.00
2023-02-13T06:45:00.803Z,100.00
2023-02-13T06:47:50.462Z,100.00
2023-02-13T06:50:19.618Z,100.00
2023-02-13T06:52:50.315Z,100.00
2023-02-13T06:55:18.930Z,100.00
2023-02-13T06:57:48.215Z,100.00
2023-02-13T07:00:18.975Z,100.00
2023-02-13T07:02:49.803Z,100.00
2023-02-13T07:05:36.184Z,100.00
2023-02-13T07:08:06.310Z,100.00
2023-02-13T07:10:59.229Z,100.00
2023-02-13T07:13:27.859Z,100.00
2023-02-13T07:16:01.470Z,100.00
2023-02-13T07:18:29.983Z,100.00
2023-02-13T07:20:59.108Z,100.00
2023-02-13T07:24:07.984Z,100.00
2023-02-13T07:26:36.589Z,100.00
2023-02-13T07:29:11.606Z,100.00
2023-02-13T07:31:40.533Z,100.00
2023-02-13T07:34:08.975Z,100.00
2023-02-13T07:36:37.207Z,100.00
2023-02-13T07:39:05.672Z,100.00
2023-02-13T07:41:34.057Z,100.00
2023-02-13T07:44:11.395Z,100.00
2023-02-13T07:46:39.772Z,100.00
2023-02-13T07:49:08.129Z,100.00
2023-02-13T07:51:36.452Z,100.00
2023-02-13T07:55:33.651Z,100.00
2023-02-13T07:58:05.974Z,100.00
2023-02-13T08:01:12.997Z,100.00
2023-02-13T08:04:25.463Z,100.00
2023-02-13T08:06:55.578Z,100.00
2023-02-13T08:10:02.052Z,100.00
2023-02-13T08:12:31.862Z,100.00
2023-02-13T08:15:00.291Z,100.00
2023-02-13T08:17:28.732Z,100.00
2023-02-13T08:19:58.442Z,100.00
2023-02-13T08:22:27.793Z,100.00
2023-02-13T08:24:56.235Z,96.32
2023-02-13T08:27:24.626Z,93.69
2023-02-13T08:30:15.498Z,94.37
2023-02-13T08:33:04.627Z,92.93
2023-02-13T08:35:53.940Z,87.95
2023-02-13T08:38:45.058Z,85.11
2023-02-13T08:41:14.710Z,81.67
2023-02-13T08:45:03.262Z,72.63
2023-02-13T08:48:36.580Z,68.03
2023-02-13T08:52:09.941Z,64.90
2023-02-13T08:55:03.894Z,60.11
2023-02-13T08:57:32.420Z,59.15
2023-02-13T09:00:00.760Z,58.54
2023-02-13T09:02:29.236Z,58.14
2023-02-13T09:04:57.671Z,58.27
2023-02-13T09:07:28.386Z,58.50
2023-02-13T09:09:56.818Z,58.61
2023-02-13T09:12:25.846Z,57.11
2023-02-13T09:14:54.969Z,55.33
2023-02-13T09:17:23.494Z,53.42
2023-02-13T09:19:52.241Z,52.49
2023-02-13T09:22:42.510Z,52.79
2023-02-13T09:25:11.786Z,50.72
2023-02-13T09:27:40.076Z,50.26
2023-02-13T09:30:11.855Z,49.97
2023-02-13T09:32:42.482Z,50.47
2023-02-13T09:35:11.366Z,49.22
2023-02-13T09:37:40.694Z,49.36
2023-02-13T09:40:36.028Z,47.72
2023-02-13T09:44:34.194Z,47.75
2023-02-13T09:48:06.402Z,47.88
2023-02-13T09:50:54.937Z,48.41
2023-02-13T09:53:25.596Z,47.84
2023-02-13T09:56:55.095Z,47.44
2023-02-13T09:59:33.057Z,48.30
2023-02-13T10:09:24.863Z,46.44
2023-02-13T10:12:52.418Z,46.07
2023-02-13T10:15:42.856Z,45.58
2023-02-13T10:18:20.246Z,46.57
2023-02-13T10:21:28.598Z,46.18
2023-02-13T10:24:47.440Z,46.13
2023-02-13T10:27:29.221Z,45.50
2023-02-13T10:30:59.513Z,45.41
2023-02-13T10:34:15.628Z,45.04
2023-02-13T10:36:47.105Z,44.08
2023-02-13T10:39:26.166Z,44.15
2023-02-13T10:42:15.468Z,44.52
2023-02-13T10:45:11.414Z,45.86
2023-02-13T10:47:45.482Z,45.43
2023-02-13T10:50:41.127Z,45.49
2023-02-13T10:53:21.932Z,45.13
2023-02-13T10:56:14.837Z,45.15
2023-02-13T10:59:05.032Z,46.28
2023-02-13T11:01:52.138Z,45.38
2023-02-13T11:04:44.594Z,44.85
2023-02-13T11:07:20.196Z,43.39
2023-02-13T11:09:51.745Z,43.57
2023-02-13T11:12:32.497Z,45.04
2023-02-13T11:16:06.158Z,47.14
2023-02-13T11:19:08.806Z,49.18
2023-02-13T11:21:38.957Z,49.31
2023-02-13T11:24:19.822Z,50.13
2023-02-13T11:26:53.076Z,52.11
2023-02-13T11:29:21.534Z,53.08
2023-02-13T11:32:18.336Z,54.09
2023-02-13T11:34:47.575Z,56.03
2023-02-13T11:37:17.961Z,56.10
2023-02-13T11:40:26.491Z,56.39
2023-02-13T11:42:55.785Z,56.34
2023-02-13T11:45:49.892Z,57.35
2023-02-13T11:50:18.397Z,57.94
2023-02-13T11:53:01.238Z,58.53
2023-02-13T11:55:38.564Z,60.44
2023-02-13T11:58:16.031Z,62.13
2023-02-13T12:00:46.854Z,64.55
2023-02-13T12:03:51.644Z,67.21
2023-02-13T12:06:21.184Z,70.65
2023-02-13T12:08:50.969Z,73.69
2023-02-13T12:11:49.073Z,76.27
2023-02-13T12:14:43.238Z,79.60
2023-02-13T12:17:31.469Z,80.88
2023-02-13T12:20:00.964Z,83.64
2023-02-13T12:22:59.540Z,84.45
2023-02-13T12:25:54.695Z,86.14
2023-02-13T12:29:23.758Z,90.01
2023-02-13T12:32:00.031Z,90.02
2023-02-13T12:34:37.857Z,89.90
2023-02-13T12:37:47.353Z,91.76
2023-02-13T12:44:43.965Z,93.17
2023-02-13T12:47:58.314Z,95.03
2023-02-13T12:50:38.316Z,95.50
2023-02-13T12:53:15.839Z,96.33
2023-02-13T12:56:11.614Z,97.51
2023-02-13T12:59:10.452Z,99.69
2023-02-13T13:02:00.770Z,99.69
2023-02-13T13:05:09.970Z,99.83
2023-02-13T13:08:46.867Z,99.91
2023-02-13T13:11:46.997Z,99.93
2023-02-13T13:14:50.496Z,100.00
2023-02-13T13:17:32.200Z,100.00
2023-02-13T13:20:16.229Z,100.00
2023-02-13T13:22:54.294Z,100.00
2023-02-13T13:25:25.824Z,100.00
2023-02-13T13:28:01.507Z,100.00
2023-02-13T13:30:35.697Z,100.00
2023-02-13T13:33:55.303Z,100.00
2023-02-13T13:36:39.340Z,100.00
2023-02-13T13:39:42.815Z,100.00
2023-02-13T13:43:00.891Z,100.00
2023-02-13T13:46:03.346Z,100.00
2023-02-13T13:49:14.468Z,100.00
2023-02-13T13:51:42.716Z,100.00
2023-02-13T13:54:10.950Z,100.00
2023-02-13T13:57:53.222Z,100.00
2023-02-13T14:01:27.087Z,100.00
2023-02-13T14:04:03.928Z,100.00
2023-02-13T14:07:47.607Z,100.00
2023-02-13T14:11:52.736Z,100.00
2023-02-13T14:15:44.787Z,100.00
2023-02-13T14:18:53.376Z,100.00
2023-02-13T14:21:33.991Z,100.00
2023-02-13T14:24:04.294Z,100.00
2023-02-13T14:26:36.151Z,100.00
2023-02-13T14:29:10.789Z,100.00
2023-02-13T14:31:53.186Z,100.00
2023-02-13T14:35:02.250Z,100.00
2023-02-13T14:37:36.006Z,100.00
2023-02-13T14:40:52.455Z,100.00
2023-02-13T14:43:59.166Z,100.00
2023-02-13T14:47:27.760Z,100.00
2023-02-13T14:50:57.216Z,100.00
2023-02-13T14:53:56.842Z,100.00
2023-02-13T14:57:05.686Z,100.00
2023-02-13T14:59:39.184Z,100.00
2023-02-13T15:03:03.282Z,100.00
2023-02-13T15:05:35.608Z,100.00
2023-02-13T15:08:20.075Z,100.00
2023-02-13T15:10:50.637Z,100.00
2023-02-13T15:13:31.674Z,100.00
2023-02-13T15:16:04.033Z,100.00
2023-02-13T15:18:41.757Z,100.00
2023-02-13T15:21:16.829Z,100.00
2023-02-13T15:23:52.830Z,100.00
2023-02-13T15:26:24.645Z,100.00
2023-02-13T15:29:29.414Z,100.00
2023-02-13T15:32:15.929Z,100.00
2023-02-13T15:35:31.486Z,100.00
2023-02-13T15:38:17.236Z,100.00
2023-02-13T15:40:45.901Z,100.00
2023-02-13T15:43:43.913Z,100.00
2023-02-13T15:46:26.967Z,100.00
2023-02-13T15:48:57.559Z,100.00
2023-02-13T15:51:30.844Z,100.00
2023-02-13T15:54:01.790Z,100.00
2023-02-13T15:56:31.461Z,100.00
2023-02-13T15:59:01.694Z,100.00
2023-02-13T16:01:36.708Z,100.00
2023-02-13T16:04:08.997Z,100.00
2023-02-13T16:07:02.220Z,100.00
2023-02-13T16:09:33.703Z,100.00
2023-02-13T16:12:28.927Z,100.00
2023-02-13T16:15:06.191Z,100.00
2023-02-13T16:17:38.707Z,100.00
2023-02-13T16:20:29.681Z,100.00
2023-02-13T16:23:27.391Z,100.00
2023-02-13T16:26:04.165Z,100.00
2023-02-13T16:28:34.792Z,100.00
2023-02-13T16:31:06.055Z,100.00
2023-02-13T16:34:20.432Z,100.00
2023-02-13T16:36:56.957Z,100.00
2023-02-13T16:39:48.169Z,100.00
2023-02-13T16:42:19.843Z,100.00
2023-02-13T16:44:48.123Z,100.00
2023-02-13T16:48:33.833Z,100.00
2023-02-13T16:51:02.201Z,100.00
2023-02-13T16:53:35.064Z,100.00
2023-02-13T16:56:08.653Z,100.00
2023-02-13T16:58:38.262Z,100.00
2023-02-13T17:01:06.613Z,100.00
2023-02-13T17:03:34.930Z,100.00
2023-02-13T17:06:03.972Z,100.00
2023-02-13T17:08:32.759Z,100.00
2023-02-13T17:11:17.361Z,100.00
2023-02-13T17:13:54.792Z,100.00
2023-02-13T17:16:23.989Z,100.00
2023-02-13T17:18:52.210Z,100.00
2023-02-13T17:21:20.455Z,100.00
2023-02-13T17:23:48.891Z,100.00
2023-02-13T17:26:17.175Z,100.00
2023-02-13T17:28:45.371Z,100.00
2023-02-13T17:31:30.618Z,100.00
2023-02-13T17:33:59.166Z,100.00
2023-02-13T17:36:48.284Z,100.00
2023-02-13T17:39:26.434Z,100.00
2023-02-13T17:41:57.091Z,100.00
2023-02-13T17:44:26.973Z,100.00
2023-02-13T17:46:55.248Z,100.00
2023-02-13T17:49:23.464Z,100.00
2023-02-13T17:51:51.676Z,100.00
2023-02-13T17:54:19.861Z,100.00
2023-02-13T17:56:48.746Z,100.00
2023-02-13T17:59:38.521Z,100.00
2023-02-13T18:02:28.504Z,100.00
2023-02-13T18:04:56.896Z,100.00
2023-02-13T18:07:25.541Z,100.00
2023-02-13T18:09:54.096Z,100.00
2023-02-13T18:12:24.421Z,100.00
2023-02-13T18:14:54.024Z,100.00
2023-02-13T18:17:22.721Z,100.00
2023-02-13T18:19:51.767Z,100.00
2023-02-13T18:22:20.120Z,100.00
2023-02-13T18:24:50.014Z,100.00
2023-02-13T18:27:39.323Z,100.00
2023-02-13T18:30:08.716Z,100.00
2023-02-13T18:32:36.996Z,100.00
2023-02-13T18:35:07.553Z,100.00
2023-02-13T18:37:36.108Z,100.00
2023-02-13T18:40:04.534Z,100.00
2023-02-13T18:42:33.329Z,100.00
2023-02-13T18:45:01.931Z,100.00
2023-02-13T18:47:30.636Z,100.00
2023-02-13T18:49:58.977Z,100.00
2023-02-13T18:52:27.217Z,100.00
2023-02-13T18:54:55.817Z,100.00
2023-02-13T18:57:24.246Z,100.00
2023-02-13T18:59:52.538Z,100.00
2023-02-13T19:02:20.808Z,100.00
2023-02-13T19:04:49.102Z,100.00
2023-02-13T19:07:17.475Z,100.00
2023-02-13T19:09:45.798Z,100.00
2023-02-13T19:12:14.054Z,100.00
2023-02-13T19:14:42.445Z,100.00
2023-02-13T19:17:10.789Z,100.00
2023-02-13T19:19:39.540Z,100.00
2023-02-13T19:22:07.738Z,100.00
2023-02-13T19:24:57.086Z,100.00
2023-02-13T19:28:01.659Z,100.00
2023-02-13T19:30:29.922Z,100.00
2023-02-13T19:32:58.040Z,100.00
2023-02-13T19:35:26.385Z,100.00
2023-02-13T19:37:54.577Z,100.00
2023-02-13T19:40:22.889Z,100.00
2023-02-13T19:42:51.042Z,100.00
2023-02-13T19:45:19.717Z,100.00
2023-02-13T19:47:48.165Z,100.00
2023-02-13T19:50:17.831Z,100.00
2023-02-13T19:52:46.300Z,100.00
2023-02-13T19:55:14.718Z,100.00
2023-02-13T19:57:42.924Z,100.00
2023-02-13T20:00:12.026Z,100.00
2023-02-13T20:02:40.397Z,100.00
2023-02-13T20:05:10.176Z,100.00
2023-02-13T20:07:38.547Z,100.00
2023-02-13T20:10:09.857Z,100.00
2023-02-13T20:12:39.381Z,100.00
2023-02-13T20:15:08.226Z,100.00
2023-02-13T20:17:38.070Z,100.00
2023-02-13T20:20:07.077Z,100.00
2023-02-13T20:22:35.518Z,100.00
2023-02-13T20:25:04.079Z,100.00
2023-02-13T20:27:33.511Z,100.00
2023-02-13T20:30:07.364Z,100.00
2023-02-13T20:32:36.568Z,100.00
2023-02-13T20:35:06.093Z,100.00
2023-02-13T20:37:35.172Z,100.00
2023-02-13T20:40:04.026Z,100.00
2023-02-13T20:42:33.985Z,100.00
2023-02-13T20:45:02.271Z,100.00
2023-02-13T20:47:30.998Z,100.00
2023-02-13T20:50:00.225Z,100.00
2023-02-13T20:52:28.436Z,100.00
2023-02-13T20:54:58.718Z,100.00
2023-02-13T20:57:27.435Z,100.00
2023-02-13T20:59:55.640Z,100.00
2023-02-13T21:02:23.983Z,100.00
2023-02-13T21:04:53.050Z,100.00
2023-02-13T21:07:22.591Z,100.00
2023-02-13T21:09:54.116Z,100.00
2023-02-13T21:12:22.276Z,100.00
2023-02-13T21:14:50.511Z,100.00
2023-02-13T21:17:19.024Z,100.00
2023-02-13T21:19:47.250Z,100.00
2023-02-13T21:22:15.438Z,100.00
2023-02-13T21:24:43.854Z,100.00
2023-02-13T21:27:12.136Z,100.00
2023-02-13T21:29:40.370Z,100.00
2023-02-13T21:32:08.714Z,100.00
2023-02-13T21:34:37.031Z,100.00
2023-02-13T21:37:05.364Z,100.00
2023-02-13T21:39:36.513Z,100.00
2023-02-13T21:42:04.907Z,100.00
2023-02-13T21:44:33.749Z,100.00
2023-02-13T21:47:02.016Z,100.00
2023-02-13T21:49:30.329Z,100.00
2023-02-13T21:51:58.559Z,100.00
2023-02-13T21:54:26.801Z,100.00
2023-02-13T21:57:12.015Z,100.00
2023-02-13T21:59:40.245Z,100.00
2023-02-13T22:02:11.011Z,100.00
2023-02-13T22:04:42.163Z,100.00
2023-02-13T22:07:19.198Z,100.00
2023-02-13T22:09:50.142Z,100.00
2023-02-13T22:12:18.213Z,100.00
2023-02-13T22:15:04.582Z,100.00
2023-02-13T22:17:36.014Z,100.00
2023-02-13T22:20:05.885Z,100.00
2023-02-13T22:23:31.033Z,100.00
2023-02-13T22:26:30.061Z,100.00
2023-02-13T22:29:04.203Z,100.00
2023-02-13T22:31:33.359Z,100.00
2023-02-13T22:34:05.742Z,100.00
2023-02-13T22:36:40.362Z,100.00
2023-02-13T22:40:13.197Z,100.00
2023-02-13T22:42:43.203Z,100.00
2023-02-13T22:45:11.666Z,100.00
2023-02-13T22:47:39.933Z,100.00
2023-02-13T22:50:08.804Z,100.00
2023-02-13T22:52:37.054Z,100.00
2023-02-13T22:55:05.611Z,100.00
2023-02-13T22:57:34.000Z,100.00
2023-02-13T23:00:02.143Z,100.00
2023-02-13T23:02:30.410Z,100.00
2023-02-13T23:04:58.876Z,100.00
2023-02-13T23:07:27.058Z,100.00
2023-02-13T23:09:55.266Z,100.00
2023-02-13T23:12:45.725Z,100.00
2023-02-13T23:15:40.458Z,99.80
2023-02-13T23:18:14.481Z,99.70
2023-02-13T23:20:44.438Z,99.50
2023-02-13T23:23:13.166Z,99.54
2023-02-13T23:25:42.960Z,99.55
2023-02-13T23:28:37.248Z,100.00
2023-02-13T23:31:24.147Z,100.00
2023-02-13T23:34:31.491Z,100.00
2023-02-13T23:37:30.547Z,100.00
2023-02-13T23:39:59.569Z,100.00
2023-02-13T23:42:28.259Z,100.00
2023-02-13T23:44:56.459Z,100.00
2023-02-13T23:47:29.029Z,100.00
2023-02-13T23:49:57.264Z,100.00
2023-02-13T23:52:25.544Z,100.00
2023-02-13T23:54:53.847Z,100.00
2023-02-13T23:57:24.348Z,100.00
2023-02-13T23:59:52.681Z,100.00
